Time;durP1;ratioP1;P1;durP2;ratioP2;P2;SDS_P1;SDS_P2;PMS_P1;PMS_P2;Temp;Humidity;BMP_temperature;BMP_pressure;BME280_temperature;BME280_humidity;BME280_pressure;Samples;Min_cycle;Max_cycle;Signal;HPM_P1;HPM_P2
2022/12/02 00:01:59;;;;;;;7.35;1.17;;;;;;;10.29;56.21;101104.72;5044965;28;20041;-47
2022/12/02 00:04:27;;;;;;;4.82;0.95;;;;;;;10.43;54.97;101110.13;5049816;28;20075;-47
2022/12/02 00:06:56;;;;;;;4.07;0.80;;;;;;;10.26;57.22;101104.28;5048665;28;20029;-45
2022/12/02 00:09:35;;;;;;;4.22;1.00;;;;;;;10.23;59.24;101113.53;5045005;28;20044;-46
2022/12/02 00:12:18;;;;;;;3.38;0.90;;;;;;;10.26;59.01;101107.78;5035991;28;20021;-45
2022/12/02 00:14:45;;;;;;;3.75;0.65;;;;;;;10.28;59.10;101116.44;5049736;28;20033;-46
2022/12/02 00:17:11;;;;;;;3.65;0.90;;;;;;;10.20;58.42;101113.88;5048925;28;20090;-46
2022/12/02 00:19:37;;;;;;;2.30;0.60;;;;;;;10.35;57.83;101118.34;5051451;28;20086;-45
2022/12/02 00:22:03;;;;;;;3.75;0.70;;;;;;;10.49;58.79;101138.78;5055036;28;20374;-43
2022/12/02 00:24:29;;;;;;;5.72;0.98;;;;;;;10.60;57.39;101134.72;5052351;28;20033;-46
2022/12/02 00:26:56;;;;;;;4.63;0.70;;;;;;;10.61;58.03;101137.22;5048189;28;20728;-47
2022/12/02 00:29:22;;;;;;;3.22;0.60;;;;;;;10.65;57.80;101138.44;5052781;28;20501;-48
2022/12/02 00:31:48;;;;;;;4.82;0.80;;;;;;;10.55;56.89;101144.19;5043316;28;20171;-49
2022/12/02 00:34:14;;;;;;;4.68;0.80;;;;;;;10.51;58.45;101144.78;5039951;28;20037;-46
2022/12/02 00:36:40;;;;;;;2.00;0.63;;;;;;;10.35;59.00;101147.75;5044835;28;20033;-44
2022/12/02 00:39:07;;;;;;;3.22;0.73;;;;;;;10.54;58.06;101150.53;5045453;28;20025;-50
2022/12/02 00:41:33;;;;;;;2.60;0.70;;;;;;;10.52;58.57;101147.25;5054486;28;20100;-49
2022/12/02 00:46:43;;;;;;;1.38;0.60;;;;;;;10.53;59.86;101162.28;5053540;28;20393;-46
2022/12/02 00:49:14;;;;;;;6.00;0.80;;;;;;;10.51;59.61;101152.81;5053936;28;20071;-47
2022/12/02 00:51:42;;;;;;;2.22;0.60;;;;;;;10.43;60.56;101163.66;5049063;28;20045;-50
2022/12/02 00:54:09;;;;;;;4.15;0.85;;;;;;;10.46;61.00;101163.25;5048323;28;20025;-52
2022/12/02 00:56:36;;;;;;;3.13;0.80;;;;;;;10.53;60.65;101174.81;5034013;28;20370;-54
2022/12/02 00:59:03;;;;;;;4.32;0.70;;;;;;;10.53;61.30;101177.50;5034112;28;20507;-49
2022/12/02 01:01:30;;;;;;;4.82;0.88;;;;;;;10.53;60.66;101178.31;5037742;28;20047;-51
2022/12/02 01:03:56;;;;;;;3.83;0.90;;;;;;;10.55;60.10;101186.19;5053838;28;20056;-52
2022/12/02 01:06:22;;;;;;;3.90;1.42;;;;;;;10.51;60.54;101185.75;5053276;28;20029;-52
2022/12/02 01:08:49;;;;;;;8.35;1.63;;;;;;;10.51;60.69;101195.63;5034491;28;20087;-52
2022/12/02 01:11:16;;;;;;;4.63;0.70;;;;;;;10.42;60.53;101194.94;5034380;28;20033;-52
2022/12/02 01:13:42;;;;;;;11.25;1.00;;;;;;;10.47;60.65;101192.50;5053159;28;20493;-54
2022/12/02 01:16:09;;;;;;;2.25;0.80;;;;;;;10.36;61.34;101192.22;5051560;28;20056;-54
2022/12/02 01:18:35;;;;;;;2.22;0.65;;;;;;;10.30;61.66;101197.34;5036780;28;20022;-52
2022/12/02 01:21:01;;;;;;;2.67;0.75;;;;;;;10.29;62.13;101202.88;5034102;28;20497;-51
2022/12/02 01:23:27;;;;;;;3.97;1.08;;;;;;;10.24;61.95;101211.50;5038899;28;20029;-52
2022/12/02 01:25:54;;;;;;;1.48;0.47;;;;;;;10.21;61.39;101200.31;5039716;28;20488;-52
2022/12/02 01:28:20;;;;;;;2.28;0.77;;;;;;;10.09;61.76;101202.69;5053140;28;20101;-52
2022/12/02 01:30:46;;;;;;;4.72;0.80;;;;;;;10.04;62.17;101211.28;5052856;28;20059;-50
2022/12/02 01:33:13;;;;;;;3.38;0.73;;;;;;;10.02;62.22;101216.03;5053371;28;20021;-51
2022/12/02 01:35:39;;;;;;;2.50;0.93;;;;;;;9.62;63.46;101214.84;5052649;28;20462;-51
2022/12/02 01:38:05;;;;;;;4.40;0.93;;;;;;;9.96;62.33;101216.78;5047806;28;20036;-49
2022/12/02 01:40:32;;;;;;;2.30;0.85;;;;;;;9.83;62.63;101215.84;5053321;28;20028;-50
2022/12/02 01:42:58;;;;;;;2.55;0.80;;;;;;;9.82;63.05;101222.22;5052755;28;20104;-51
2022/12/02 01:45:25;;;;;;;4.78;1.10;;;;;;;9.89;62.76;101225.78;5050227;28;20131;-51
2022/12/02 01:47:51;;;;;;;3.25;0.90;;;;;;;9.61;62.84;101231.06;5037283;28;20057;-48
2022/12/02 01:50:19;;;;;;;2.40;1.15;;;;;;;9.46;62.51;101231.13;5052972;28;20017;-51
2022/12/02 01:52:45;;;;;;;4.03;0.80;;;;;;;9.36;62.66;101238.59;5042690;28;20436;-52
2022/12/02 01:55:17;;;;;;;2.67;0.93;;;;;;;9.26;63.34;101250.41;5052573;28;20025;-51
2022/12/02 01:57:43;;;;;;;2.78;0.90;;;;;;;9.30;63.14;101248.19;5052699;28;20024;-50
2022/12/02 02:00:11;;;;;;;4.40;0.95;;;;;;;9.30;61.43;101247.38;5052842;28;20051;-50
2022/12/02 02:02:38;;;;;;;1.77;0.65;;;;;;;9.20;61.44;101253.00;5047075;28;20028;-49
2022/12/02 02:05:16;;;;;;;7.80;1.00;;;;;;;9.21;61.40;101251.97;5037800;28;20026;-52
2022/12/02 02:07:44;;;;;;;6.30;1.15;;;;;;;9.01;62.18;101257.06;5051892;28;20033;-48
2022/12/02 02:10:11;;;;;;;3.47;0.80;;;;;;;9.06;62.23;101254.69;5052798;28;20033;-51
2022/12/02 02:12:38;;;;;;;2.17;1.05;;;;;;;9.05;62.46;101257.53;5051812;28;20036;-50
2022/12/02 02:15:07;;;;;;;4.63;1.50;;;;;;;8.96;62.65;101259.47;5051842;28;20368;-49
2022/12/02 02:17:33;;;;;;;3.85;1.23;;;;;;;8.93;62.85;101265.16;5038790;28;20401;-49
2022/12/02 02:20:02;;;;;;;3.35;1.08;;;;;;;8.88;63.00;101267.56;5044577;28;20067;-50
2022/12/02 02:23:09;;;;;;;2.35;0.60;;;;;;;8.83;62.52;101275.28;5045914;28;20493;-48
2022/12/02 02:25:51;;;;;;;6.07;1.00;;;;;;;8.76;63.23;101280.53;5029394;28;20262;-47
2022/12/02 02:28:18;;;;;;;4.22;1.02;;;;;;;8.71;63.16;101289.09;5052388;28;20020;-49
2022/12/02 02:30:45;;;;;;;3.35;0.80;;;;;;;8.64;63.49;101293.50;5051579;28;20052;-49
2022/12/02 02:33:13;;;;;;;3.45;0.85;;;;;;;8.77;63.35;101297.38;5051923;28;20029;-51
2022/12/02 02:35:41;;;;;;;3.55;1.02;;;;;;;8.60;63.86;101296.72;5043580;28;20082;-50
2022/12/02 02:38:11;;;;;;;2.83;0.88;;;;;;;8.65;63.38;101299.66;5036210;28;20048;-51
2022/12/02 02:40:38;;;;;;;3.17;1.00;;;;;;;8.48;64.25;101298.16;5035970;28;20032;-50
2022/12/02 02:43:05;;;;;;;2.80;0.85;;;;;;;8.58;64.20;101304.91;5052255;28;20024;-51
2022/12/02 02:45:34;;;;;;;2.80;0.63;;;;;;;8.57;63.86;101311.25;5036749;28;20033;-48
2022/12/02 02:48:03;;;;;;;3.05;1.08;;;;;;;8.51;63.87;101313.84;5052387;28;20032;-50
2022/12/02 02:50:30;;;;;;;3.72;1.05;;;;;;;8.33;64.39;101325.63;5051424;28;20037;-48
2022/12/02 02:52:57;;;;;;;2.15;1.00;;;;;;;8.26;64.57;101332.66;5051895;28;20024;-51
2022/12/02 02:55:26;;;;;;;4.60;1.30;;;;;;;8.13;65.13;101340.44;5050937;28;20024;-51
2022/12/02 02:57:53;;;;;;;2.72;0.95;;;;;;;8.06;65.37;101345.66;5045044;28;20388;-52
2022/12/02 03:00:22;;;;;;;2.28;1.10;;;;;;;8.07;65.49;101349.97;5039540;28;20021;-49
2022/12/02 03:02:53;;;;;;;5.35;1.30;;;;;;;7.81;67.01;101339.63;5031991;28;20057;-49
2022/12/02 03:05:21;;;;;;;4.97;2.10;;;;;;;7.60;68.20;101353.56;5040220;28;20110;-51
2022/12/02 03:07:48;;;;;;;5.75;2.20;;;;;;;7.56;68.86;101352.28;5051706;28;20021;-48
2022/12/02 03:10:15;;;;;;;9.32;2.85;;;;;;;7.41;69.42;101360.16;5050789;28;20028;-49
2022/12/02 03:12:41;;;;;;;9.30;3.45;;;;;;;7.45;69.23;101359.81;5051737;28;20120;-48
2022/12/02 03:15:09;;;;;;;6.28;2.20;;;;;;;7.26;69.40;101369.03;5050975;28;20029;-52
2022/12/02 03:17:36;;;;;;;5.28;2.15;;;;;;;7.31;69.05;101374.66;5041830;28;20113;-51
2022/12/02 03:20:04;;;;;;;6.18;2.95;;;;;;;7.24;69.08;101363.88;5036237;28;20067;-52
2022/12/02 03:22:30;;;;;;;5.55;2.17;;;;;;;7.20;69.22;101372.38;5051519;28;20049;-49
2022/12/02 03:24:57;;;;;;;3.47;1.98;;;;;;;7.21;68.95;101382.84;5050750;28;20029;-48
2022/12/02 03:27:23;;;;;;;4.30;1.75;;;;;;;7.19;69.02;101392.00;5051308;28;20029;-49
2022/12/02 03:29:51;;;;;;;3.90;1.60;;;;;;;7.21;69.32;101384.66;5050946;28;20028;-48
2022/12/02 03:32:17;;;;;;;3.47;1.30;;;;;;;7.17;70.22;101391.38;5051352;28;20032;-52
2022/12/02 03:34:43;;;;;;;6.85;1.48;;;;;;;7.11;70.08;101395.53;5050656;28;20033;-49
2022/12/02 03:37:10;;;;;;;2.97;0.88;;;;;;;6.97;70.81;101404.19;5051089;28;20055;-50
2022/12/02 03:39:37;;;;;;;5.20;1.30;;;;;;;7.01;70.92;101411.69;5051727;28;20370;-49
2022/12/02 03:42:04;;;;;;;3.42;1.10;;;;;;;7.01;70.81;101411.69;5050443;28;20060;-48
2022/12/02 03:44:31;;;;;;;3.00;1.17;;;;;;;7.01;71.12;101422.31;5050579;28;20112;-50
2022/12/02 03:46:57;;;;;;;6.65;1.55;;;;;;;7.01;71.00;101418.84;5051069;28;20060;-49
2022/12/02 03:49:24;;;;;;;3.15;1.33;;;;;;;6.99;71.33;101424.31;5050587;28;20428;-48
2022/12/02 03:51:50;;;;;;;5.63;1.40;;;;;;;6.98;71.04;101414.66;5053753;28;20032;-52
2022/12/02 03:54:17;;;;;;;4.05;1.05;;;;;;;6.97;71.13;101422.81;5054779;28;20089;-47
2022/12/02 03:56:43;;;;;;;3.35;1.05;;;;;;;6.96;70.90;101423.84;5054929;28;20451;-48
2022/12/02 03:59:17;;;;;;;3.40;1.35;;;;;;;7.04;70.45;101432.63;5054563;28;20025;-49
2022/12/02 04:01:44;;;;;;;9.18;2.20;;;;;;;7.06;70.99;101435.13;5055872;28;20029;-51
2022/12/02 04:04:10;;;;;;;3.45;1.45;;;;;;;6.82;72.09;101439.47;5055135;28;20040;-47
2022/12/02 04:06:37;;;;;;;2.83;1.40;;;;;;;6.71;71.88;101436.31;5054845;28;20550;-49
2022/12/02 04:09:03;;;;;;;6.22;1.40;;;;;;;6.64;71.97;101445.94;5055305;28;20520;-49
2022/12/02 04:11:30;;;;;;;5.22;1.70;;;;;;;6.66;71.89;101442.09;5053885;28;20034;-51
2022/12/02 04:13:56;;;;;;;4.20;1.77;;;;;;;6.63;72.24;101455.75;5037286;28;20029;-52
2022/12/02 04:16:22;;;;;;;3.58;1.60;;;;;;;6.65;72.28;101456.41;5053953;28;20094;-51
2022/12/02 04:18:48;;;;;;;6.75;2.05;;;;;;;6.53;72.53;101455.91;5054626;28;20045;-48
2022/12/02 04:21:14;;;;;;;4.20;1.60;;;;;;;6.63;72.35;101460.25;5053971;28;20021;-48
2022/12/02 04:23:41;;;;;;;4.45;2.03;;;;;;;6.82;71.40;101465.22;5054760;28;20470;-48
2022/12/02 04:26:07;;;;;;;6.75;1.80;;;;;;;6.43;72.58;101487.13;5053623;28;20048;-51
2022/12/02 04:28:33;;;;;;;5.30;1.83;;;;;;;6.57;72.17;101486.50;5053878;28;20023;-48
2022/12/02 04:31:00;;;;;;;3.10;1.80;;;;;;;6.46;72.64;101488.66;5054696;28;20068;-49
2022/12/02 04:33:26;;;;;;;6.20;2.10;;;;;;;6.53;71.96;101497.63;5053684;28;20037;-49
2022/12/02 04:35:52;;;;;;;5.32;2.00;;;;;;;6.10;73.09;101502.16;5054561;28;20033;-48
2022/12/02 04:38:18;;;;;;;5.50;2.10;;;;;;;5.77;74.48;101499.34;5054475;28;20031;-48
2022/12/02 04:40:44;;;;;;;4.07;1.88;;;;;;;5.87;74.27;101501.88;5035133;28;20500;-50
2022/12/02 04:43:11;;;;;;;3.78;1.50;;;;;;;5.90;74.30;101498.06;5053556;28;20396;-48
2022/12/02 04:45:37;;;;;;;5.15;1.88;;;;;;;5.93;74.61;101514.53;5054289;28;20439;-57
2022/12/02 04:48:03;;;;;;;3.58;1.77;;;;;;;6.01;74.15;101508.44;5053704;28;20420;-49
2022/12/02 04:50:29;;;;;;;4.47;2.13;;;;;;;5.77;74.61;101514.44;5054490;28;20026;-50
2022/12/02 04:52:56;;;;;;;6.68;2.10;;;;;;;5.51;75.75;101517.94;5053341;28;20128;-49
2022/12/02 04:55:22;;;;;;;3.08;2.42;;;;;;;5.60;75.17;101525.94;5053856;28;20021;-51
2022/12/02 04:57:48;;;;;;;4.55;2.35;;;;;;;5.71;74.43;101518.53;5035418;28;20401;-52
2022/12/02 05:00:15;;;;;;;7.55;2.20;;;;;;;5.73;74.12;101529.88;5054122;28;20104;-51
2022/12/02 05:02:41;;;;;;;4.22;2.20;;;;;;;5.71;74.00;101529.16;5052924;28;20044;-51
2022/12/02 05:05:08;;;;;;;5.13;1.73;;;;;;;5.71;74.16;101536.31;5053913;28;20029;-51
2022/12/02 05:07:34;;;;;;;4.43;1.55;;;;;;;5.71;73.93;101538.97;5053217;28;20039;-49
2022/12/02 05:10:00;;;;;;;4.80;1.77;;;;;;;5.75;74.03;101540.31;5054259;28;20021;-49
2022/12/02 05:12:27;;;;;;;4.43;1.70;;;;;;;5.67;73.90;101535.81;5053111;28;20039;-51
2022/12/02 05:14:53;;;;;;;4.43;1.85;;;;;;;5.64;73.85;101533.47;5053074;28;20029;-49
2022/12/02 05:17:19;;;;;;;4.45;1.70;;;;;;;5.70;73.58;101535.47;5052601;28;20035;-51
2022/12/02 05:19:45;;;;;;;4.97;2.22;;;;;;;5.71;73.31;101534.47;5053706;28;20045;-51
2022/12/02 05:22:12;;;;;;;4.75;2.10;;;;;;;5.67;73.38;101534.97;5052928;28;20025;-51
2022/12/02 05:24:39;;;;;;;3.13;1.80;;;;;;;5.49;73.24;101533.19;5053557;28;20033;-51
2022/12/02 05:27:05;;;;;;;3.30;1.88;;;;;;;5.45;73.58;101550.44;5052485;28;20028;-52
2022/12/02 05:29:31;;;;;;;3.63;1.58;;;;;;;5.41;73.54;101559.69;5053586;28;20021;-52
2022/12/02 05:31:58;;;;;;;3.17;1.42;;;;;;;5.41;73.54;101561.50;5052783;28;20036;-51
2022/12/02 05:34:24;;;;;;;2.58;1.80;;;;;;;5.31;73.93;101564.25;5053411;28;20032;-51
2022/12/02 05:36:50;;;;;;;3.38;1.60;;;;;;;5.28;73.75;101554.78;5034575;28;20025;-51
2022/12/02 05:39:16;;;;;;;4.78;1.90;;;;;;;5.38;73.29;101554.69;5053114;28;20409;-49
2022/12/02 05:41:43;;;;;;;4.40;1.60;;;;;;;5.24;73.38;101571.16;5052793;28;20072;-52
2022/12/02 05:44:19;;;;;;;6.00;2.33;;;;;;;5.18;73.33;101569.13;5053305;28;20021;-50
2022/12/02 05:46:45;;;;;;;8.07;1.83;;;;;;;5.12;73.11;101580.34;5052273;28;20021;-51
2022/12/02 05:49:20;;;;;;;3.75;1.65;;;;;;;5.07;73.13;101583.47;5052873;28;20025;-51
2022/12/02 05:51:56;;;;;;;4.13;2.28;;;;;;;5.04;73.12;101583.75;5052713;28;20386;-51
2022/12/02 05:54:23;;;;;;;2.72;1.70;;;;;;;5.11;73.21;101597.25;5053170;28;20029;-51
2022/12/02 05:56:49;;;;;;;8.43;2.63;;;;;;;5.25;73.52;101594.91;5052518;28;20401;-51
2022/12/02 05:59:18;;;;;;;5.85;2.45;;;;;;;5.37;74.37;101600.81;5052524;28;20033;-52
2022/12/02 06:01:52;;;;;;;5.15;2.42;;;;;;;5.25;74.97;101604.69;5052000;28;20033;-51
2022/12/02 06:04:22;;;;;;;5.10;1.75;;;;;;;5.32;74.72;101597.78;5053041;28;20029;-49
2022/12/02 06:06:52;;;;;;;4.63;1.98;;;;;;;5.46;74.29;101613.16;5051895;28;20124;-52
2022/12/02 06:09:24;;;;;;;3.72;1.35;;;;;;;5.49;74.18;101604.03;5052677;28;20021;-51
2022/12/02 06:11:52;;;;;;;5.32;1.20;;;;;;;5.62;72.98;101615.13;5052293;28;20363;-48
2022/12/02 06:14:20;;;;;;;4.05;1.30;;;;;;;5.67;72.76;101623.47;5050910;28;20393;-51
2022/12/02 06:16:50;;;;;;;6.80;1.00;;;;;;;5.70;71.85;101619.66;5051746;28;20075;-51
2022/12/02 06:19:46;;;;;;;2.30;1.08;;;;;;;5.57;72.39;101638.66;5052437;28;20041;-51
2022/12/02 06:22:25;;;;;;;2.15;0.85;;;;;;;5.51;73.24;101644.56;5050958;28;20032;-51
2022/12/02 06:24:55;;;;;;;1.60;0.90;;;;;;;5.36;73.80;101641.63;5052019;28;20029;-50
2022/12/02 06:27:22;;;;;;;3.30;1.88;;;;;;;5.35;74.15;101652.41;5051575;28;20548;-51
2022/12/02 06:29:55;;;;;;;3.88;1.75;;;;;;;5.11;74.55;101651.19;5052674;28;20543;-51
2022/12/02 06:32:27;;;;;;;6.28;2.40;;;;;;;4.82;74.91;101650.50;5051123;28;20044;-49
2022/12/02 06:34:54;;;;;;;5.20;2.33;;;;;;;4.91;75.00;101652.28;5052439;28;20091;-52
2022/12/02 06:37:30;;;;;;;6.65;1.67;;;;;;;5.07;74.34;101648.97;5051434;28;20024;-49
2022/12/02 06:39:59;;;;;;;2.63;1.27;;;;;;;5.09;74.18;101670.88;5045638;28;20026;-50
2022/12/02 06:42:31;;;;;;;3.95;1.50;;;;;;;4.81;75.24;101680.66;5042357;28;20521;-48
2022/12/02 06:45:17;;;;;;;5.75;1.35;;;;;;;4.68;76.00;101692.47;5032009;28;20022;-51
2022/12/02 06:47:53;;;;;;;;;;;;;;;4.84;75.61;101697.13;5048996;28;20140;-50
2022/12/02 06:50:31;;;;;;;4.32;1.55;;;;;;;4.92;75.14;101701.69;5052376;28;19913;-51
2022/12/02 06:53:23;;;;;;;3.45;1.40;;;;;;;4.95;74.92;101706.72;5050682;28;20063;-49
2022/12/02 06:55:53;;;;;;;2.65;1.20;;;;;;;5.00;74.91;101718.56;5014544;28;20091;-50
2022/12/02 06:58:26;;;;;;;3.97;1.40;;;;;;;5.15;73.96;101715.38;5031937;28;20018;-48
2022/12/02 07:00:53;;;;;;;2.33;1.42;;;;;;;5.03;74.00;101720.91;5031825;28;20021;-50
2022/12/02 07:03:30;;;;;;;3.53;1.08;;;;;;;5.12;73.35;101718.34;5031894;28;20021;-49
2022/12/02 07:06:20;;;;;;;5.13;1.60;;;;;;;4.81;74.89;101715.16;5037721;28;20115;-49
2022/12/02 07:08:47;;;;;;;2.00;1.35;;;;;;;4.84;74.40;101728.13;5051260;28;20137;-50
2022/12/02 07:14:40;;;;;;;2.28;1.27;;;;;;;4.76;74.41;101712.94;5052099;28;20527;-52
2022/12/02 07:17:16;;;;;;;3.80;1.50;;;;;;;4.66;75.00;101707.66;5051568;28;20025;-48
2022/12/02 07:19:46;;;;;;;4.30;1.70;;;;;;;4.60;74.80;101724.16;5051436;28;20048;-50
2022/12/02 07:22:30;;;;;;;3.85;1.98;;;;;;;4.55;75.00;101731.72;5033113;28;20116;-50
2022/12/02 07:25:15;;;;;;;6.97;1.90;;;;;;;4.60;74.54;101734.78;5031128;28;20025;-50
2022/12/02 07:27:47;;;;;;;2.47;1.55;;;;;;;4.57;74.30;101735.06;5050456;28;20070;-51
2022/12/02 07:30:20;;;;;;;2.60;1.50;;;;;;;4.65;73.13;101747.59;5051504;28;20021;-51
2022/12/02 07:32:46;;;;;;;3.70;1.80;;;;;;;4.49;73.69;101759.63;5050936;28;20235;-51
2022/12/02 07:35:12;;;;;;;5.35;2.00;;;;;;;4.34;74.17;101758.44;5050721;28;20482;-51
2022/12/02 07:37:38;;;;;;;3.83;1.65;;;;;;;4.18;74.83;101760.84;5051489;28;20408;-51
2022/12/02 07:40:06;;;;;;;3.45;1.67;;;;;;;4.30;73.95;101759.69;5051000;28;20025;-51
2022/12/02 07:42:32;;;;;;;3.47;1.40;;;;;;;4.29;73.90;101752.72;5049432;28;20027;-51
2022/12/02 07:44:58;;;;;;;4.18;1.70;;;;;;;4.19;73.90;101766.00;5050699;28;20164;-52
2022/12/02 07:47:24;;;;;;;2.42;1.23;;;;;;;4.20;73.77;101775.59;5051342;28;20071;-50
2022/12/02 07:49:50;;;;;;;3.78;1.17;;;;;;;4.09;73.89;101786.34;5051254;28;20351;-51
2022/12/02 07:52:17;;;;;;;2.13;1.10;;;;;;;4.11;73.89;101796.81;5019125;28;20034;-52
2022/12/02 07:54:43;;;;;;;3.13;1.52;;;;;;;4.01;74.57;101796.00;5030968;28;20058;-51
2022/12/02 07:57:09;;;;;;;2.22;1.30;;;;;;;4.03;73.82;101783.44;5031228;28;20033;-51
2022/12/02 07:59:35;;;;;;;4.28;1.20;;;;;;;3.93;74.18;101809.91;5033213;28;20033;-49
2022/12/02 08:02:01;;;;;;;2.65;1.08;;;;;;;3.96;74.52;101807.84;5051340;28;20029;-50
2022/12/02 08:04:27;;;;;;;2.47;0.85;;;;;;;3.95;74.82;101807.97;5051128;28;20108;-49
2022/12/02 08:06:54;;;;;;;2.78;1.20;;;;;;;3.96;74.68;101809.66;5050692;28;20582;-52
2022/12/02 08:09:20;;;;;;;3.85;1.20;;;;;;;3.83;74.78;101815.22;5051131;28;20036;-52
2022/12/02 08:11:46;;;;;;;2.53;0.85;;;;;;;3.77;75.06;101821.06;5051177;28;20620;-52
2022/12/02 08:14:13;;;;;;;1.98;0.82;;;;;;;3.90;75.11;101826.09;5050882;28;20029;-52
2022/12/02 08:16:39;;;;;;;5.60;1.40;;;;;;;3.90;74.38;101837.53;5050469;28;20385;-52
2022/12/02 08:19:05;;;;;;;2.22;1.10;;;;;;;3.85;74.47;101823.88;5050627;28;20122;-51
2022/12/02 08:21:32;;;;;;;2.90;1.17;;;;;;;3.89;74.44;101837.69;5051188;28;20032;-52
2022/12/02 08:23:59;;;;;;;3.75;1.40;;;;;;;3.99;73.79;101846.44;5050981;28;20053;-52
2022/12/02 08:26:25;;;;;;;5.57;1.50;;;;;;;3.75;74.44;101853.94;5050644;28;20033;-51
2022/12/02 08:28:51;;;;;;;3.45;1.00;;;;;;;3.50;76.11;101849.97;5032878;28;20128;-52
2022/12/02 08:31:17;;;;;;;2.33;1.00;;;;;;;3.47;76.29;101860.84;5050601;28;20557;-52
2022/12/02 08:33:44;;;;;;;2.55;1.17;;;;;;;3.29;77.19;101858.00;5050420;28;20025;-49
2022/12/02 08:36:10;;;;;;;2.42;0.93;;;;;;;3.28;77.79;101862.47;5050081;28;20079;-51
2022/12/02 08:38:37;;;;;;;2.30;1.15;;;;;;;3.21;77.97;101871.88;5053928;28;20049;-50
2022/12/02 08:41:03;;;;;;;3.67;1.00;;;;;;;3.40;77.41;101871.97;5054215;28;20029;-49
2022/12/02 08:43:29;;;;;;;3.65;1.05;;;;;;;3.39;77.41;101878.25;5054306;28;20070;-49
2022/12/02 08:45:55;;;;;;;3.63;1.15;;;;;;;3.42;77.18;101870.03;5054013;28;20437;-51
2022/12/02 08:48:22;;;;;;;2.13;1.10;;;;;;;3.34;77.03;101880.44;5054507;28;20025;-52
2022/12/02 08:50:48;;;;;;;4.15;1.17;;;;;;;3.42;77.44;101874.47;5054267;28;20370;-47
2022/12/02 08:53:14;;;;;;;2.08;0.80;;;;;;;3.45;76.74;101890.09;5054053;28;20090;-51
2022/12/02 08:55:40;;;;;;;1.63;0.80;;;;;;;3.57;76.12;101898.78;5054098;28;20056;-51
2022/12/02 08:58:07;;;;;;;3.17;1.30;;;;;;;3.42;76.15;101896.50;5053830;28;20036;-48
2022/12/02 09:00:33;;;;;;;1.80;0.88;;;;;;;3.42;76.53;101895.66;5054106;28;20493;-50
2022/12/02 09:03:00;;;;;;;4.90;0.95;;;;;;;3.65;75.09;101906.88;5053876;28;20060;-50
2022/12/02 09:05:26;;;;;;;1.95;0.80;;;;;;;3.42;76.22;101907.06;5053242;28;20374;-51
2022/12/02 09:07:53;;;;;;;4.10;1.00;;;;;;;3.36;76.68;101897.03;5053899;28;20036;-51
2022/12/02 09:10:19;;;;;;;1.88;0.80;;;;;;;3.34;76.43;101896.34;5052983;28;20021;-48
2022/12/02 09:12:45;;;;;;;1.88;0.90;;;;;;;3.28;76.50;101893.38;5052757;28;20028;-51
2022/12/02 09:15:12;;;;;;;2.40;0.80;;;;;;;3.24;76.85;101894.63;5053249;28;20402;-49
2022/12/02 09:17:38;;;;;;;3.90;1.35;;;;;;;3.37;76.65;101895.22;5052904;28;20037;-50
2022/12/02 09:20:05;;;;;;;2.78;1.05;;;;;;;3.15;77.29;101893.59;5053649;28;20041;-48
2022/12/02 09:22:31;;;;;;;2.70;1.20;;;;;;;3.16;77.06;101895.25;5052545;28;20461;-50
2022/12/02 09:24:57;;;;;;;4.18;1.20;;;;;;;3.09;77.07;101891.47;5052360;28;20037;-51
2022/12/02 09:27:23;;;;;;;3.03;1.00;;;;;;;3.16;76.26;101892.59;5052333;28;20048;-50
2022/12/02 09:29:49;;;;;;;3.13;1.00;;;;;;;3.14;76.27;101886.63;5052908;28;20025;-49
2022/12/02 09:32:16;;;;;;;4.72;1.15;;;;;;;3.09;76.59;101888.81;5053130;28;20049;-48
2022/12/02 09:34:42;;;;;;;3.33;1.27;;;;;;;3.11;76.67;101892.16;5043404;28;20025;-51
2022/12/02 09:37:08;;;;;;;5.82;1.17;;;;;;;3.11;76.36;101897.44;5053205;28;20025;-51
2022/12/02 09:39:34;;;;;;;1.58;0.60;;;;;;;3.13;75.99;101900.81;5052840;28;20413;-48
2022/12/02 09:42:01;;;;;;;1.92;0.80;;;;;;;3.01;76.22;101901.88;5052731;28;20017;-47
2022/12/02 09:44:27;;;;;;;2.58;1.17;;;;;;;2.98;76.12;101896.84;5053206;28;20041;-48
2022/12/02 09:46:53;;;;;;;3.38;1.27;;;;;;;2.92;76.44;101899.03;5052258;28;20037;-48
2022/12/02 09:49:20;;;;;;;2.75;1.10;;;;;;;2.25;79.08;101895.91;5053355;28;20036;-48
2022/12/02 09:51:46;;;;;;;2.17;1.13;;;;;;;1.95;81.57;101900.09;5053112;28;20024;-50
2022/12/02 09:54:15;;;;;;;2.08;0.85;;;;;;;2.08;81.19;101903.41;5053054;28;20039;-49
2022/12/02 09:56:41;;;;;;;0.63;0.20;;;;;;;2.36;79.71;101909.06;5034182;28;20545;-51
2022/12/02 09:59:15;;;;;;;1.80;0.70;;;;;;;2.32;79.68;101910.28;5052845;28;20020;-51
2022/12/02 10:01:50;;;;;;;2.28;1.08;;;;;;;2.42;78.96;101920.94;5051866;28;20028;-49
2022/12/02 10:04:20;;;;;;;2.95;0.68;;;;;;;2.45;78.72;101915.41;5052199;28;20032;-47
2022/12/02 10:06:48;;;;;;;3.40;0.73;;;;;;;2.60;77.95;101909.66;5052458;28;20110;-50
2022/12/02 10:09:27;;;;;;;5.32;1.13;;;;;;;2.72;77.31;101909.59;5052122;28;20024;-50
2022/12/02 10:11:54;;;;;;;3.25;1.10;;;;;;;2.58;77.34;101922.19;5037540;28;20503;-48
2022/12/02 10:14:21;;;;;;;2.35;1.00;;;;;;;2.52;77.17;101927.97;5048578;28;20024;-49
2022/12/02 10:16:47;;;;;;;1.58;0.60;;;;;;;2.56;77.13;101928.56;5048506;28;20030;-49
2022/12/02 10:19:18;;;;;;;1.45;0.50;;;;;;;2.52;77.01;101922.69;5037214;28;20444;-51
2022/12/02 10:21:45;;;;;;;1.35;0.70;;;;;;;2.50;77.01;101935.19;5049675;28;20037;-51
2022/12/02 10:24:12;;;;;;;3.28;0.80;;;;;;;2.45;76.83;101933.91;5051690;28;20502;-49
2022/12/02 10:26:56;;;;;;;3.42;0.93;;;;;;;2.56;76.02;101931.22;5052001;28;20092;-48
2022/12/02 10:29:28;;;;;;;2.00;0.93;;;;;;;2.53;76.28;101942.88;5050806;28;20025;-49
2022/12/02 10:32:00;;;;;;;1.23;0.55;;;;;;;2.48;76.12;101939.75;5052132;28;20033;-49
2022/12/02 10:34:28;;;;;;;3.10;1.48;;;;;;;2.33;76.32;101936.59;5051177;28;20033;-48
2022/12/02 10:36:54;;;;;;;3.10;1.30;;;;;;;2.32;77.15;101937.53;5052155;28;20021;-48
2022/12/02 10:39:21;;;;;;;3.40;1.13;;;;;;;2.33;76.97;101943.66;5051545;28;20032;-49
2022/12/02 10:41:49;;;;;;;3.90;1.27;;;;;;;2.30;77.17;101928.91;5051936;28;20029;-48
2022/12/02 10:44:20;;;;;;;3.55;1.33;;;;;;;2.30;77.44;101931.53;5051167;28;20167;-46
2022/12/02 10:46:48;;;;;;;4.10;1.50;;;;;;;2.35;76.63;101926.72;5051851;28;20264;-47
2022/12/02 10:49:33;;;;;;;3.50;1.42;;;;;;;2.42;76.46;101928.84;5051248;28;20087;-53
2022/12/02 10:52:09;;;;;;;1.90;1.25;;;;;;;2.38;76.08;101928.25;5051466;28;20462;-48
2022/12/02 10:54:39;;;;;;;2.90;1.50;;;;;;;2.23;76.73;101927.72;5050959;28;20041;-50
2022/12/02 10:57:06;;;;;;;2.30;1.13;;;;;;;2.24;76.79;101928.56;5051529;28;20144;-48
2022/12/02 10:59:33;;;;;;;3.00;1.38;;;;;;;2.13;76.58;101920.69;5050760;28;20507;-47
2022/12/02 11:02:00;;;;;;;2.80;1.20;;;;;;;2.09;76.50;101922.72;5051602;28;20025;-48
2022/12/02 11:04:28;;;;;;;3.13;1.23;;;;;;;2.12;76.37;101914.56;5051009;28;20033;-48
2022/12/02 11:06:55;;;;;;;1.88;0.90;;;;;;;2.08;76.51;101913.13;5035734;28;20033;-47
2022/12/02 11:09:25;;;;;;;2.35;1.23;;;;;;;2.11;76.78;101918.16;5040269;28;20036;-47
2022/12/02 11:11:51;;;;;;;2.15;0.90;;;;;;;1.96;77.78;101935.25;5051767;28;20573;-47
2022/12/02 11:14:39;;;;;;;2.50;1.02;;;;;;;1.96;77.36;101928.16;5050350;28;20029;-49
2022/12/02 11:17:10;;;;;;;4.57;0.88;;;;;;;1.96;77.09;101919.41;5051026;28;20485;-49
2022/12/02 11:19:39;;;;;;;0.80;0.65;;;;;;;2.11;76.66;101926.09;5050442;28;20052;-47
2022/12/02 11:23:05;;;;;;;3.33;0.90;;;;;;;2.22;76.37;101926.06;5051589;28;20473;-48
2022/12/02 11:25:46;;;;;;;3.55;0.85;;;;;;;2.00;76.98;101915.53;4950493;29;20039;-48
2022/12/02 11:28:18;;;;;;;2.38;0.90;;;;;;;1.97;76.79;101918.44;4951096;29;20480;-47
2022/12/02 11:30:46;;;;;;;2.80;0.98;;;;;;;2.04;76.33;101924.88;5011541;28;20041;-48
2022/12/02 11:33:47;;;;;;;1.55;0.80;;;;;;;1.94;76.32;101927.41;5051058;28;20112;-48
2022/12/02 11:36:23;;;;;;;1.88;1.15;;;;;;;1.89;76.46;101934.03;5051074;28;20469;-47
2022/12/02 11:38:52;;;;;;;3.83;1.15;;;;;;;1.92;76.04;101939.91;5049777;28;20039;-50
2022/12/02 11:41:20;;;;;;;1.98;1.00;;;;;;;1.91;76.27;101945.34;5031682;28;20048;-48
2022/12/02 11:43:46;;;;;;;1.13;0.90;;;;;;;1.96;76.01;101940.53;5013494;28;20056;-48
2022/12/02 11:46:40;;;;;;;2.70;1.25;;;;;;;1.85;76.74;101931.66;5050345;28;20536;-48